createdAt,value
2023-05-17T00:04:17.406Z,15.39
2023-05-17T00:07:19.831Z,15.40
2023-05-17T00:10:22.019Z,15.42
2023-05-17T00:13:24.426Z,15.44
2023-05-17T00:16:27.370Z,15.45
2023-05-17T00:19:29.682Z,15.46
2023-05-17T00:22:32.692Z,15.48
2023-05-17T00:25:35.220Z,15.47
2023-05-17T00:28:37.596Z,15.48
2023-05-17T00:31:39.911Z,15.48
2023-05-17T00:34:42.310Z,15.48
2023-05-17T00:37:48.245Z,15.48
2023-05-17T00:40:51.295Z,15.47
2023-05-17T00:43:53.778Z,15.46
2023-05-17T00:46:56.251Z,15.44
2023-05-17T00:49:58.524Z,15.42
2023-05-17T00:53:01.307Z,15.41
2023-05-17T00:56:04.501Z,15.41
2023-05-17T00:59:08.731Z,15.40
2023-05-17T01:02:12.104Z,15.40
2023-05-17T01:05:16.408Z,15.39
2023-05-17T01:08:18.614Z,15.38
2023-05-17T01:11:50.815Z,15.36
2023-05-17T01:15:08.009Z,15.34
2023-05-17T01:18:17.199Z,15.33
2023-05-17T01:21:56.147Z,15.32
2023-05-17T01:25:10.801Z,15.32
2023-05-17T01:28:15.370Z,15.31
2023-05-17T02:04:17.543Z,15.40
2023-05-17T02:07:20.035Z,15.41
2023-05-17T02:10:22.625Z,15.42
2023-05-17T02:13:25.052Z,15.41
2023-05-17T02:16:27.257Z,15.40
2023-05-17T02:19:29.660Z,15.38
2023-05-17T02:22:32.048Z,15.36
2023-05-17T02:25:34.383Z,15.34
2023-05-17T02:28:36.754Z,15.32
2023-05-17T02:31:39.146Z,15.31
2023-05-17T02:34:41.452Z,15.31
2023-05-17T02:37:43.963Z,15.30
2023-05-17T02:40:48.290Z,15.29
2023-05-17T02:43:51.033Z,15.28
2023-05-17T02:46:53.341Z,15.28
2023-05-17T02:49:55.645Z,15.28
2023-05-17T02:52:57.834Z,15.29
2023-05-17T02:56:00.173Z,15.29
2023-05-17T02:59:02.554Z,15.31
2023-05-17T03:02:05.220Z,15.34
2023-05-17T03:05:08.511Z,15.37
2023-05-17T03:08:14.025Z,15.40
2023-05-17T03:11:16.597Z,15.42
2023-05-17T03:14:19.121Z,15.44
2023-05-17T03:17:21.699Z,15.47
2023-05-17T03:20:24.822Z,15.50
2023-05-17T03:23:27.070Z,15.54
2023-05-17T03:30:25.508Z,15.66
2023-05-17T03:33:28.364Z,15.70
2023-05-17T03:36:31.111Z,15.75
2023-05-17T03:39:33.957Z,15.77
2023-05-17T03:42:36.940Z,15.80
2023-05-17T03:45:39.597Z,15.83
2023-05-17T03:48:41.731Z,15.85
2023-05-17T03:51:45.539Z,15.86
2023-05-17T03:54:48.392Z,15.89
2023-05-17T03:57:51.633Z,15.92
2023-05-17T04:04:20.742Z,15.96
2023-05-17T04:07:23.283Z,16.03
2023-05-17T04:10:25.699Z,16.06
2023-05-17T04:13:27.941Z,16.09
2023-05-17T04:16:30.117Z,16.11
2023-05-17T04:19:32.768Z,16.12
2023-05-17T04:22:37.321Z,16.13
2023-05-17T04:25:40.022Z,16.13
2023-05-17T04:28:43.914Z,16.15
2023-05-17T04:31:49.330Z,16.17
2023-05-17T04:34:52.678Z,16.19
2023-05-17T04:37:55.155Z,16.21
2023-05-17T04:41:05.682Z,16.24
2023-05-17T04:44:09.627Z,16.29
2023-05-17T04:47:12.701Z,16.34
2023-05-17T04:50:15.080Z,16.40
2023-05-17T04:53:17.766Z,16.44
2023-05-17T04:56:20.548Z,16.51
2023-05-17T04:59:22.906Z,16.57
2023-05-17T05:02:26.266Z,16.63
2023-05-17T05:05:29.207Z,16.71
2023-05-17T05:08:34.288Z,16.80
2023-05-17T05:11:36.940Z,16.88
2023-05-17T05:14:39.169Z,16.93
2023-05-17T05:17:42.145Z,17.03
2023-05-17T05:20:44.483Z,17.12
2023-05-17T05:23:46.669Z,17.23
2023-05-17T05:26:49.841Z,17.34
2023-05-17T05:33:43.292Z,17.60
2023-05-17T05:36:46.959Z,17.70
2023-05-17T05:39:51.686Z,17.80
2023-05-17T05:42:54.653Z,17.92
2023-05-17T05:45:56.925Z,18.05
2023-05-17T05:48:59.034Z,18.15
2023-05-17T05:52:02.690Z,18.27
2023-05-17T05:55:06.025Z,18.39
2023-05-17T05:58:09.393Z,18.52
2023-05-17T06:04:22.731Z,18.73
2023-05-17T06:07:32.193Z,18.86
2023-05-17T06:10:34.298Z,18.95
2023-05-17T06:13:36.535Z,19.03
2023-05-17T06:16:38.788Z,19.12
2023-05-17T06:19:40.948Z,19.24
2023-05-17T06:22:44.203Z,19.37
2023-05-17T06:25:46.262Z,19.51
2023-05-17T06:35:24.664Z,19.94
2023-05-17T06:38:27.203Z,20.01
2023-05-17T06:41:29.705Z,20.13
2023-05-17T06:44:32.405Z,20.30
2023-05-17T06:47:35.543Z,20.51
2023-05-17T06:50:38.313Z,20.68
2023-05-17T06:53:40.706Z,20.86
2023-05-17T06:56:43.432Z,21.00
2023-05-17T06:59:46.124Z,21.13
2023-05-17T07:02:49.104Z,21.17
2023-05-17T07:05:51.643Z,21.22
2023-05-17T07:08:56.793Z,21.32
2023-05-17T07:11:59.070Z,21.43
2023-05-17T07:15:03.512Z,21.54
2023-05-17T07:18:06.283Z,21.66
2023-05-17T07:21:09.110Z,21.70
2023-05-17T07:24:11.434Z,21.75
2023-05-17T07:27:13.488Z,21.91
2023-05-17T07:30:15.871Z,22.12
2023-05-17T07:33:18.058Z,22.32
2023-05-17T07:36:20.764Z,22.52
2023-05-17T07:39:26.071Z,22.75
2023-05-17T07:42:28.513Z,22.89
2023-05-17T07:45:31.603Z,22.86
2023-05-17T07:48:34.406Z,22.75
2023-05-17T07:51:36.899Z,22.76
2023-05-17T07:54:39.428Z,22.83
2023-05-17T07:57:41.693Z,22.95
2023-05-17T08:00:44.118Z,23.16
2023-05-17T08:03:49.155Z,23.39
2023-05-17T08:06:51.537Z,23.58
2023-05-17T08:09:53.847Z,23.68
2023-05-17T08:12:56.215Z,23.66
2023-05-17T08:16:12.704Z,23.63
2023-05-17T08:19:18.996Z,23.47
2023-05-17T08:22:21.429Z,23.36
2023-05-17T08:25:23.748Z,23.20
2023-05-17T08:28:25.870Z,23.07
2023-05-17T08:31:27.998Z,22.92
2023-05-17T08:34:30.259Z,22.81
2023-05-17T08:37:33.960Z,22.78
2023-05-17T08:40:36.344Z,22.88
2023-05-17T08:43:39.764Z,22.90
2023-05-17T08:46:44.658Z,22.98
2023-05-17T08:49:48.277Z,23.06
2023-05-17T08:52:51.828Z,23.11
2023-05-17T08:56:00.689Z,23.22
2023-05-17T08:59:06.009Z,23.40
2023-05-17T09:02:08.859Z,23.64
2023-05-17T09:05:11.583Z,23.83
2023-05-17T09:08:14.589Z,23.84
2023-05-17T09:11:25.673Z,23.58
2023-05-17T09:14:35.435Z,23.27
2023-05-17T09:17:38.651Z,23.13
2023-05-17T09:20:42.274Z,23.18
2023-05-17T09:24:01.847Z,23.44
2023-05-17T09:27:08.574Z,23.87
2023-05-17T09:30:12.007Z,24.08
2023-05-17T09:33:17.647Z,24.31
2023-05-17T09:36:23.520Z,24.42
2023-05-17T09:39:26.060Z,24.28
2023-05-17T09:42:28.423Z,24.23
2023-05-17T09:45:33.047Z,24.19
2023-05-17T09:48:38.953Z,24.28
2023-05-17T09:51:43.455Z,24.57
2023-05-17T09:54:53.698Z,24.77
2023-05-17T09:58:04.153Z,24.80
2023-05-17T10:04:23.584Z,24.59
2023-05-17T10:07:28.195Z,24.68
2023-05-17T10:10:31.135Z,24.70
2023-05-17T10:13:48.110Z,24.66
2023-05-17T10:16:51.588Z,24.65
2023-05-17T10:19:55.296Z,24.73
2023-05-17T10:22:58.807Z,24.93
2023-05-17T10:26:02.697Z,25.21
2023-05-17T10:29:06.672Z,25.51
2023-05-17T10:32:09.703Z,25.70
2023-05-17T10:35:15.473Z,25.69
2023-05-17T10:38:20.372Z,25.33
2023-05-17T10:41:25.561Z,24.96
2023-05-17T10:44:31.080Z,24.80
2023-05-17T10:47:34.666Z,24.85
2023-05-17T10:50:47.382Z,24.84
2023-05-17T10:54:10.256Z,24.82
2023-05-17T11:00:55.186Z,25.04
2023-05-17T11:03:58.561Z,25.24
2023-05-17T11:07:20.588Z,25.18
2023-05-17T11:10:23.180Z,24.96
2023-05-17T11:13:28.946Z,24.79
2023-05-17T11:16:38.709Z,24.64
2023-05-17T11:19:51.784Z,24.66
2023-05-17T11:23:00.295Z,24.80
2023-05-17T11:26:18.201Z,24.84
2023-05-17T11:29:20.786Z,24.97
2023-05-17T11:32:31.528Z,25.06
2023-05-17T11:35:37.791Z,25.08
2023-05-17T11:38:40.010Z,25.07
2023-05-17T11:42:24.310Z,25.16
2023-05-17T11:45:27.132Z,25.52
2023-05-17T11:48:31.095Z,25.94
2023-05-17T11:51:34.469Z,26.44
2023-05-17T11:54:39.341Z,26.84
2023-05-17T11:57:42.051Z,27.12
2023-05-17T12:00:45.473Z,27.34
2023-05-17T12:03:50.577Z,27.21
2023-05-17T12:06:56.701Z,27.22
2023-05-17T12:09:58.995Z,27.38
2023-05-17T12:13:01.673Z,27.45
2023-05-17T12:16:07.762Z,27.36
2023-05-17T12:19:28.375Z,27.12
2023-05-17T12:22:30.975Z,26.96
2023-05-17T12:25:33.342Z,26.86
2023-05-17T12:28:37.825Z,26.68
2023-05-17T12:31:44.189Z,26.62
2023-05-17T12:34:48.251Z,26.71
2023-05-17T12:37:50.888Z,26.75
2023-05-17T12:40:53.201Z,26.77
2023-05-17T12:44:06.138Z,26.82
2023-05-17T12:47:10.713Z,26.89
2023-05-17T12:50:12.985Z,26.90
2023-05-17T12:53:15.933Z,26.79
2023-05-17T12:56:24.009Z,26.68
2023-05-17T12:59:26.436Z,26.56
2023-05-17T13:02:28.892Z,26.42
2023-05-17T13:05:31.470Z,26.34
2023-05-17T13:08:34.662Z,26.28
2023-05-17T13:11:41.686Z,26.20
2023-05-17T13:14:47.444Z,26.15
2023-05-17T13:17:50.543Z,26.17
2023-05-17T13:20:52.780Z,26.15
2023-05-17T13:23:54.901Z,26.16
2023-05-17T13:26:57.169Z,26.23
2023-05-17T13:29:59.240Z,26.35
2023-05-17T13:33:01.919Z,26.45
2023-05-17T13:36:05.307Z,26.46
2023-05-17T13:39:07.686Z,26.53
2023-05-17T13:42:11.132Z,26.63
2023-05-17T13:45:14.042Z,26.77
2023-05-17T13:48:16.267Z,26.98
2023-05-17T13:51:18.419Z,27.23
2023-05-17T13:54:22.405Z,27.45
2023-05-17T13:57:24.705Z,27.80
2023-05-17T14:04:21.706Z,29.57
2023-05-17T14:07:23.923Z,30.38
2023-05-17T14:10:26.041Z,30.83
2023-05-17T14:13:28.599Z,30.96
2023-05-17T14:16:31.415Z,31.22
2023-05-17T14:19:33.693Z,31.41
2023-05-17T14:22:36.140Z,31.41
2023-05-17T14:25:38.406Z,31.11
2023-05-17T14:28:41.011Z,30.52
2023-05-17T14:31:43.583Z,29.83
2023-05-17T14:34:45.738Z,29.35
2023-05-17T14:37:47.956Z,29.10
2023-05-17T14:40:50.244Z,28.92
2023-05-17T14:43:52.460Z,28.62
2023-05-17T14:46:54.865Z,28.31
2023-05-17T14:49:57.393Z,28.00
2023-05-17T14:52:59.615Z,27.70
2023-05-17T14:56:02.475Z,27.43
2023-05-17T14:59:05.082Z,27.06
2023-05-17T15:02:07.660Z,26.78
2023-05-17T15:05:11.037Z,26.55
2023-05-17T15:08:15.207Z,26.34
2023-05-17T15:11:17.432Z,26.16
2023-05-17T15:14:22.635Z,26.03
2023-05-17T15:17:24.996Z,25.92
2023-05-17T15:20:27.611Z,25.82
2023-05-17T15:23:29.798Z,25.73
2023-05-17T15:26:32.086Z,25.61
2023-05-17T15:29:34.761Z,25.50
2023-05-17T15:32:37.101Z,25.45
2023-05-17T15:35:42.534Z,25.39
2023-05-17T15:38:45.725Z,25.32
2023-05-17T15:41:48.278Z,25.27
2023-05-17T15:44:50.704Z,25.23
2023-05-17T15:47:54.007Z,25.20
2023-05-17T15:50:56.979Z,25.20
2023-05-17T15:53:59.275Z,25.21
2023-05-17T15:57:01.533Z,25.24
2023-05-17T16:00:04.949Z,25.24
2023-05-17T16:03:07.239Z,25.15
2023-05-17T16:19:41.450Z,24.38
2023-05-17T16:22:46.025Z,24.25
2023-05-17T16:25:48.099Z,24.10
2023-05-17T16:28:51.214Z,23.96
2023-05-17T16:31:54.013Z,23.82
2023-05-17T16:34:56.079Z,23.69
2023-05-17T16:37:58.187Z,23.55
2023-05-17T16:41:03.500Z,23.43
2023-05-17T16:49:58.986Z,23.08
2023-05-17T16:53:01.216Z,22.95
2023-05-17T16:56:03.527Z,22.84
2023-05-17T16:59:06.468Z,22.73
2023-05-17T17:02:08.765Z,22.63
2023-05-17T17:05:10.853Z,22.51
2023-05-17T17:08:13.052Z,22.40
2023-05-17T17:11:19.888Z,22.27
2023-05-17T17:14:22.766Z,22.16
2023-05-17T17:17:24.867Z,22.01
2023-05-17T17:20:27.343Z,21.86
2023-05-17T17:23:29.698Z,21.72
2023-05-17T17:26:32.679Z,21.60
2023-05-17T17:29:34.841Z,21.47
2023-05-17T17:32:37.242Z,21.36
2023-05-17T17:35:39.688Z,21.25
2023-05-17T17:38:41.858Z,21.17
2023-05-17T17:41:44.087Z,21.08
2023-05-17T17:51:32.302Z,20.88
2023-05-17T17:54:34.408Z,20.79
2023-05-17T17:57:36.627Z,20.72
2023-05-17T18:04:18.843Z,20.57
2023-05-17T18:07:21.596Z,20.50
2023-05-17T18:10:24.025Z,20.44
2023-05-17T18:13:26.264Z,20.39
2023-05-17T18:16:29.240Z,20.33
2023-05-17T18:19:31.822Z,20.27
2023-05-17T18:22:34.849Z,20.22
2023-05-17T18:25:37.231Z,20.17
2023-05-17T18:28:42.787Z,20.12
2023-05-17T18:31:47.654Z,20.07
2023-05-17T18:34:50.359Z,20.02
2023-05-17T18:37:53.250Z,19.97
2023-05-17T18:40:55.467Z,19.92
2023-05-17T18:44:02.122Z,19.88
2023-05-17T18:47:04.569Z,19.83
2023-05-17T18:50:07.869Z,19.79
2023-05-17T18:53:10.470Z,19.75
2023-05-17T18:56:15.074Z,19.71
2023-05-17T18:59:17.242Z,19.69
2023-05-17T19:02:19.582Z,19.66
2023-05-17T19:05:22.182Z,19.65
2023-05-17T19:08:24.860Z,19.63
2023-05-17T19:11:28.996Z,19.60
2023-05-17T19:14:32.435Z,19.57
2023-05-17T19:17:34.679Z,19.52
2023-05-17T19:20:37.343Z,19.48
2023-05-17T19:23:39.816Z,19.43
2023-05-17T19:26:42.097Z,19.37
2023-05-17T19:29:44.680Z,19.32
2023-05-17T19:32:46.894Z,19.26
2023-05-17T19:35:50.150Z,19.20
2023-05-17T19:38:52.516Z,19.14
2023-05-17T19:41:54.779Z,19.09
2023-05-17T19:44:57.060Z,19.03
2023-05-17T19:47:59.482Z,18.98
2023-05-17T19:51:01.906Z,18.93
2023-05-17T19:54:04.390Z,18.89
2023-05-17T19:57:06.998Z,18.85
2023-05-17T20:00:10.174Z,18.81
2023-05-17T20:03:12.523Z,18.77
2023-05-17T20:06:15.434Z,18.72
2023-05-17T20:09:18.107Z,18.69
2023-05-17T20:12:21.232Z,18.65
2023-05-17T20:15:24.395Z,18.60
2023-05-17T20:18:30.267Z,18.56
2023-05-17T20:21:32.539Z,18.51
2023-05-17T20:24:35.467Z,18.45
2023-05-17T20:27:38.035Z,18.40
2023-05-17T20:30:44.257Z,18.34
2023-05-17T20:33:46.928Z,18.29
2023-05-17T20:36:49.038Z,18.24
2023-05-17T20:39:51.757Z,18.17
2023-05-17T20:42:54.050Z,18.10
2023-05-17T20:45:56.766Z,18.01
2023-05-17T20:49:01.602Z,17.91
2023-05-17T20:52:04.865Z,17.82
2023-05-17T20:55:09.828Z,17.72
2023-05-17T20:58:12.077Z,17.62
2023-05-17T21:01:15.179Z,17.54
2023-05-17T21:04:17.962Z,17.46
2023-05-17T21:07:20.650Z,17.38
2023-05-17T21:10:23.666Z,17.30
2023-05-17T21:13:26.801Z,17.22
2023-05-17T21:16:29.528Z,17.13
2023-05-17T21:19:31.924Z,17.06
2023-05-17T21:22:34.000Z,16.99
2023-05-17T21:25:37.984Z,16.93
2023-05-17T21:28:40.154Z,16.87
2023-05-17T21:31:42.704Z,16.81
2023-05-17T21:34:45.698Z,16.74
2023-05-17T21:37:47.876Z,16.69
2023-05-17T21:40:50.200Z,16.64
2023-05-17T21:43:52.519Z,16.61
2023-05-17T21:46:55.769Z,16.57
2023-05-17T21:49:59.463Z,16.54
2023-05-17T21:53:01.713Z,16.51
2023-05-17T21:56:04.920Z,16.46
2023-05-17T21:59:07.062Z,16.43
2023-05-17T22:04:19.139Z,16.34
2023-05-17T22:07:21.447Z,16.30
2023-05-17T22:10:24.616Z,16.27
2023-05-17T22:13:27.152Z,16.23
2023-05-17T22:16:33.466Z,16.19
2023-05-17T22:19:41.067Z,16.16
2023-05-17T22:22:43.366Z,16.13
2023-05-17T22:25:46.848Z,16.11
2023-05-17T22:28:50.826Z,16.09
2023-05-17T22:31:53.320Z,16.06
2023-05-17T22:34:56.478Z,16.04
2023-05-17T22:37:58.660Z,16.02
2023-05-17T22:41:00.809Z,15.98
2023-05-17T22:44:03.390Z,15.95
2023-05-17T22:47:06.279Z,15.92
2023-05-17T22:50:11.009Z,15.89
2023-05-17T22:53:16.560Z,15.85
2023-05-17T22:56:18.719Z,15.81
2023-05-17T22:59:20.791Z,15.78
2023-05-17T23:02:23.406Z,15.74
2023-05-17T23:05:25.747Z,15.72
2023-05-17T23:08:30.365Z,15.69
2023-05-17T23:11:34.971Z,15.65
2023-05-17T23:14:37.447Z,15.62
2023-05-17T23:17:40.153Z,15.59
2023-05-17T23:20:43.460Z,15.56
2023-05-17T23:23:45.631Z,15.53
2023-05-17T23:26:47.808Z,15.51
2023-05-17T23:29:49.950Z,15.50
2023-05-17T23:32:53.047Z,15.48
2023-05-17T23:35:56.054Z,15.46
2023-05-17T23:38:58.253Z,15.46
2023-05-17T23:42:00.894Z,15.45
2023-05-17T23:45:04.119Z,15.44
2023-05-17T23:48:10.183Z,15.42
2023-05-17T23:51:12.398Z,15.41
2023-05-17T23:54:16.457Z,15.40
2023-05-17T23:57:18.735Z,15.40
